East Cowes, United Kingdom
Current Conditions -  °F | °C
As of 9:50 PM on Monday 22 Dec 2014 (Local Time) from EGHI Reporting Station
Broken Clouds Broken Clouds  
Wind Chill: 52°   Ceiling: 3000
Heat Index: 52°   Visibility: 6mi
Dew Point: 43°   Wind: 17mph
Humidity: 71%   Direction: 250°WSW
Pressure: 30.12"   Gusts: NA
Location:  50.76°N, 1.29°W
Report Text: EGHI 222150Z 25015KT 9999 BKN030 11/06 Q1020
Loading
Personal Weather Stations






























Interactive Weather Map New forecast layout! Learn more

10-Day Weather Forecast

Advertisements
Track Severe Weather on mobile